CheckWX is a tool to help pilots better visualize weather data.  It is not intended as a substitute for an official pre-flight weather briefing.

09:15:37 UTC

KEGI METAR
Duke Field Airport
Crestview, Florida, USA
Current

20 mins ago

KEGI 250856Z AUTO 00000KT 10SM CLR 24/24 A2993 RMK AO2 SLP134 T02410241 57011 $
Observed
Aug-25 @ 08:56 UTC
Visibility
10 SM
Flight Rules
VFR
Cloud Levels
  • Clear skies
Temperature
24°C / 75°F
Dewpoint
24°C / 75°F
Humidity
100%
Altimeter
29.93" Hg
Pressure
1013.52 hPa
Previous

1 hour ago

KEGI 250806Z AUTO 28003KT 10SM SCT023 25/25 A2994 RMK AO2 SLP137 $
Observed
Aug-25 @ 08:06 UTC
Wind
  • 280° at 3 KTS
Visibility
10 SM
Flight Rules
VFR
Cloud Levels
  • Scattered at 2,300' AGL
Temperature
25°C / 77°F
Dewpoint
25°C / 77°F
Humidity
100%
Altimeter
29.94" Hg
Pressure
1013.92 hPa
Previous

1 hour ago

KEGI 250804Z AUTO 28003KT 10SM BKN023 25/25 A2994 RMK AO2 BKN V SCT SLP137 $
Observed
Aug-25 @ 08:04 UTC
Wind
  • 280° at 3 KTS
Visibility
10 SM
Flight Rules
MVFR
Cloud Levels
  • Broken at 2,300' AGL
Temperature
25°C / 77°F
Dewpoint
25°C / 77°F
Humidity
100%
Altimeter
29.94" Hg
Pressure
1013.92 hPa